Time;durP1;ratioP1;P1;durP2;ratioP2;P2;SDS_P1;SDS_P2;PMS_P1;PMS_P2;Temp;Humidity;BMP_temperature;BMP_pressure;BME280_temperature;BME280_humidity;BME280_pressure;Samples;Min_cycle;Max_cycle;Signal;HPM_P1;HPM_P2
2023/05/15 00:00:47;;;;;;;2.78;2.58;;;;;;;;;;4976773;28;20295;-82
2023/05/15 00:03:15;;;;;;;2.15;2.03;;;;;;;;;;4976382;28;20228;-83
2023/05/15 00:05:44;;;;;;;2.05;1.95;;;;;;;;;;4976969;28;20654;-83
2023/05/15 00:08:11;;;;;;;2.53;2.30;;;;;;;;;;4976931;28;20287;-83
2023/05/15 00:10:38;;;;;;;4.05;2.42;;;;;;;;;;4976155;28;20315;-83
2023/05/15 00:13:06;;;;;;;3.20;2.92;;;;;;;;;;4999739;28;20605;-83
2023/05/15 00:15:33;;;;;;;3.83;3.20;;;;;;;;;;5015383;28;20314;-83
2023/05/15 00:18:01;;;;;;;2.50;2.40;;;;;;;;;;4999021;28;20299;-83
2023/05/15 00:20:28;;;;;;;3.38;3.08;;;;;;;;;;4995157;28;20203;-82
2023/05/15 00:22:58;;;;;;;4.43;3.00;;;;;;;;;;4996408;28;20266;-83
2023/05/15 00:25:25;;;;;;;3.53;3.22;;;;;;;;;;4999297;28;20200;-82
2023/05/15 00:27:53;;;;;;;5.13;2.80;;;;;;;;;;4999313;28;20206;-83
2023/05/15 00:30:20;;;;;;;3.10;2.85;;;;;;;;;;4998877;28;20314;-82
2023/05/15 00:32:48;;;;;;;4.28;2.72;;;;;;;;;;4998891;28;20281;-82
2023/05/15 00:35:15;;;;;;;4.70;2.78;;;;;;;;;;4999040;28;20637;-82
2023/05/15 00:37:43;;;;;;;3.30;3.10;;;;;;;;;;4999121;28;20210;-82
2023/05/15 00:40:15;;;;;;;4.18;2.78;;;;;;;;;;4998225;28;20720;-82
2023/05/15 00:42:43;;;;;;;3.10;2.83;;;;;;;;;;5007732;28;20233;-82
2023/05/15 00:45:11;;;;;;;3.10;2.80;;;;;;;;;;5017881;28;20299;-82
2023/05/15 00:47:39;;;;;;;4.88;2.50;;;;;;;;;;5004515;28;20306;-83
2023/05/15 00:50:09;;;;;;;1.80;1.70;;;;;;;;;;4997868;28;20269;-83
2023/05/15 00:52:37;;;;;;;2.38;2.10;;;;;;;;;;4998516;28;20230;-83
2023/05/15 00:55:06;;;;;;;2.53;2.38;;;;;;;;;;4998086;28;20203;-83
2023/05/15 00:57:35;;;;;;;2.38;2.17;;;;;;;;;;4998612;28;20206;-83
2023/05/15 01:00:05;;;;;;;3.15;2.40;;;;;;;;;;4997669;28;20210;-82
2023/05/15 01:02:33;;;;;;;3.15;2.85;;;;;;;;;;4998650;28;20224;-82
2023/05/15 01:05:00;;;;;;;6.45;3.67;;;;;;;;;;4997976;28;20287;-83
2023/05/15 01:07:29;;;;;;;3.22;2.67;;;;;;;;;;4997758;28;20267;-83
2023/05/15 01:09:57;;;;;;;2.08;1.98;;;;;;;;;;4998302;28;20227;-83
2023/05/15 01:12:25;;;;;;;2.58;2.38;;;;;;;;;;5004337;28;20542;-83
2023/05/15 01:14:54;;;;;;;2.42;2.33;;;;;;;;;;5010131;28;20350;-83
2023/05/15 01:17:22;;;;;;;2.70;2.50;;;;;;;;;;4997735;28;20247;-83
2023/05/15 01:19:52;;;;;;;2.60;2.40;;;;;;;;;;4997624;28;20290;-82
2023/05/15 01:22:52;;;;;;;3.47;2.10;;;;;;;;;;4998186;28;20219;-82
2023/05/15 01:25:46;;;;;;;2.50;2.30;;;;;;;;;;4997880;28;20187;-83
2023/05/15 01:28:21;;;;;;;3.00;2.70;;;;;;;;;;4997905;28;20188;-83
2023/05/15 01:30:49;;;;;;;2.50;2.40;;;;;;;;;;4997841;28;20660;-83
2023/05/15 01:33:22;;;;;;;2.75;2.55;;;;;;;;;;4997568;28;20748;-83
2023/05/15 01:35:56;;;;;;;2.58;2.38;;;;;;;;;;4997007;28;20207;-83
2023/05/15 01:38:30;;;;;;;3.20;2.83;;;;;;;;;;4997592;28;20192;-83
2023/05/15 01:41:05;;;;;;;2.50;2.40;;;;;;;;;;4997468;28;20251;-82
2023/05/15 01:43:35;;;;;;;2.50;2.30;;;;;;;;;;4997792;28;20218;-83
2023/05/15 01:46:03;;;;;;;3.30;3.00;;;;;;;;;;4997220;28;20222;-83
2023/05/15 01:48:31;;;;;;;2.13;2.03;;;;;;;;;;4997840;28;20227;-83
2023/05/15 01:51:03;;;;;;;2.80;2.60;;;;;;;;;;4997353;28;20223;-83
2023/05/15 01:53:33;;;;;;;2.60;2.40;;;;;;;;;;4996903;28;20235;-82
2023/05/15 01:56:00;;;;;;;2.80;2.60;;;;;;;;;;4997653;28;20240;-82
2023/05/15 01:58:29;;;;;;;2.60;2.45;;;;;;;;;;4997122;28;20242;-83
2023/05/15 02:00:58;;;;;;;3.83;2.15;;;;;;;;;;4997695;28;20200;-83
2023/05/15 02:03:26;;;;;;;3.10;2.70;;;;;;;;;;4997484;28;20255;-83
2023/05/15 02:05:55;;;;;;;3.47;2.58;;;;;;;;;;4997332;28;20295;-82
2023/05/15 02:08:24;;;;;;;1.80;1.70;;;;;;;;;;4996956;28;20245;-83
2023/05/15 02:10:52;;;;;;;2.38;2.28;;;;;;;;;;4997344;28;20591;-82
2023/05/15 02:13:20;;;;;;;3.25;2.92;;;;;;;;;;5011086;28;20266;-83
2023/05/15 02:15:48;;;;;;;2.58;2.42;;;;;;;;;;5016621;28;20209;-82
2023/05/15 02:18:16;;;;;;;3.30;3.00;;;;;;;;;;4998322;28;20299;-82
2023/05/15 02:20:44;;;;;;;3.22;3.03;;;;;;;;;;4996590;28;20210;-82
2023/05/15 02:23:11;;;;;;;2.58;2.47;;;;;;;;;;4996752;28;20258;-82
2023/05/15 02:26:02;;;;;;;2.50;2.30;;;;;;;;;;4996717;28;20235;-83
2023/05/15 02:28:35;;;;;;;2.28;2.15;;;;;;;;;;4996704;28;20192;-82
2023/05/15 02:31:08;;;;;;;2.60;2.40;;;;;;;;;;4997060;28;20654;-82
2023/05/15 02:33:45;;;;;;;2.25;2.05;;;;;;;;;;4996235;28;20226;-83
2023/05/15 02:36:18;;;;;;;2.78;2.58;;;;;;;;;;4996899;28;20367;-82
2023/05/15 02:38:48;;;;;;;2.22;2.13;;;;;;;;;;4996775;28;20214;-82
2023/05/15 02:41:16;;;;;;;1.80;1.70;;;;;;;;;;4996768;28;20200;-82
2023/05/15 02:43:44;;;;;;;2.45;2.35;;;;;;;;;;5013587;28;20227;-82
2023/05/15 02:46:13;;;;;;;2.67;2.47;;;;;;;;;;5013969;28;20310;-83
2023/05/15 02:48:42;;;;;;;2.70;2.50;;;;;;;;;;4995765;28;20207;-83
2023/05/15 02:51:10;;;;;;;2.67;2.53;;;;;;;;;;4996187;28;20230;-83
2023/05/15 02:53:40;;;;;;;1.95;1.85;;;;;;;;;;4996713;28;20688;-83
2023/05/15 02:56:08;;;;;;;2.15;2.05;;;;;;;;;;4996055;28;20290;-83
2023/05/15 02:58:35;;;;;;;2.42;2.22;;;;;;;;;;4995379;28;20207;-83
2023/05/15 03:01:03;;;;;;;3.28;1.95;;;;;;;;;;4995840;28;20372;-83
2023/05/15 03:03:30;;;;;;;3.30;3.10;;;;;;;;;;4995753;28;20259;-83
2023/05/15 03:06:00;;;;;;;2.22;2.10;;;;;;;;;;4996363;28;20219;-83
2023/05/15 03:08:28;;;;;;;2.63;2.40;;;;;;;;;;4995632;28;20222;-83
2023/05/15 03:10:55;;;;;;;2.50;2.30;;;;;;;;;;4995846;28;20310;-83
2023/05/15 03:13:23;;;;;;;2.72;2.50;;;;;;;;;;5010300;28;20229;-82
2023/05/15 03:15:50;;;;;;;2.70;2.50;;;;;;;;;;5015773;28;20628;-83
2023/05/15 03:18:18;;;;;;;2.83;2.63;;;;;;;;;;4997074;28;20646;-82
2023/05/15 03:20:47;;;;;;;4.75;2.30;;;;;;;;;;4996103;28;20286;-83
2023/05/15 03:23:16;;;;;;;2.20;2.10;;;;;;;;;;4996007;28;20688;-82
2023/05/15 03:25:43;;;;;;;1.90;1.80;;;;;;;;;;4996150;28;20231;-82
2023/05/15 03:28:10;;;;;;;2.78;1.90;;;;;;;;;;4995545;28;20632;-82
2023/05/15 03:30:38;;;;;;;2.50;2.30;;;;;;;;;;4995951;28;20573;-82
2023/05/15 03:33:05;;;;;;;2.72;2.55;;;;;;;;;;4995826;28;20311;-82
2023/05/15 03:35:33;;;;;;;3.45;3.25;;;;;;;;;;4995363;28;20290;-83
2023/05/15 03:38:01;;;;;;;2.50;2.30;;;;;;;;;;4994888;28;20208;-82
2023/05/15 03:40:29;;;;;;;3.78;3.45;;;;;;;;;;4995481;28;20203;-82
2023/05/15 03:42:57;;;;;;;2.78;2.58;;;;;;;;;;5006322;28;20247;-82
2023/05/15 03:45:24;;;;;;;2.92;2.53;;;;;;;;;;5014928;28;20286;-82
2023/05/15 03:47:52;;;;;;;5.82;2.88;;;;;;;;;;4998930;28;20645;-83
2023/05/15 03:50:20;;;;;;;2.67;2.47;;;;;;;;;;4995313;28;20641;-83
2023/05/15 03:52:48;;;;;;;2.40;2.20;;;;;;;;;;4995018;28;20315;-83
2023/05/15 03:55:15;;;;;;;3.08;2.80;;;;;;;;;;4995169;28;20239;-83
2023/05/15 03:57:44;;;;;;;2.63;2.42;;;;;;;;;;4995443;28;20207;-83
2023/05/15 04:00:13;;;;;;;2.75;2.00;;;;;;;;;;4999037;28;20234;-83
2023/05/15 04:02:41;;;;;;;2.20;2.10;;;;;;;;;;4998378;28;20314;-83
2023/05/15 04:05:09;;;;;;;2.22;2.13;;;;;;;;;;4998396;28;20204;-83
2023/05/15 04:07:37;;;;;;;2.85;2.65;;;;;;;;;;4999302;28;20188;-82
2023/05/15 04:10:06;;;;;;;2.35;2.17;;;;;;;;;;4998966;28;20298;-83
2023/05/15 04:12:35;;;;;;;2.67;2.47;;;;;;;;;;5005356;28;20234;-83
2023/05/15 04:15:17;;;;;;;2.45;2.30;;;;;;;;;;5018489;28;20205;-82
2023/05/15 04:17:45;;;;;;;1.90;1.80;;;;;;;;;;5003707;28;20302;-83
2023/05/15 04:20:14;;;;;;;2.00;1.90;;;;;;;;;;4998517;28;20288;-83
2023/05/15 04:22:42;;;;;;;2.20;2.00;;;;;;;;;;4998464;28;20220;-82
2023/05/15 04:25:11;;;;;;;2.22;2.13;;;;;;;;;;4999122;28;20294;-82
2023/05/15 04:27:39;;;;;;;2.15;2.05;;;;;;;;;;4998066;28;20294;-82
2023/05/15 04:30:08;;;;;;;3.00;2.80;;;;;;;;;;4998454;28;20210;-82
2023/05/15 04:32:37;;;;;;;2.42;2.22;;;;;;;;;;4998204;28;20232;-84
2023/05/15 04:35:08;;;;;;;2.20;2.10;;;;;;;;;;4998399;28;20210;-83
2023/05/15 04:37:36;;;;;;;2.67;2.47;;;;;;;;;;4998387;28;20207;-83
2023/05/15 04:40:06;;;;;;;2.88;2.67;;;;;;;;;;4998228;28;20242;-83
2023/05/15 04:42:33;;;;;;;2.33;2.20;;;;;;;;;;5005805;28;20614;-82
2023/05/15 04:45:01;;;;;;;2.58;2.40;;;;;;;;;;5017936;28;20678;-82
2023/05/15 04:47:28;;;;;;;2.28;2.13;;;;;;;;;;5005746;28;20687;-82
2023/05/15 04:49:57;;;;;;;2.30;2.10;;;;;;;;;;4997541;28;20314;-82
2023/05/15 04:52:25;;;;;;;2.25;2.15;;;;;;;;;;4998841;28;20278;-83
2023/05/15 04:54:54;;;;;;;2.30;2.17;;;;;;;;;;4997645;28;20235;-83
2023/05/15 04:57:21;;;;;;;3.05;2.85;;;;;;;;;;4997175;28;20290;-83
2023/05/15 04:59:49;;;;;;;3.83;3.53;;;;;;;;;;4998027;28;20656;-83
2023/05/15 05:02:18;;;;;;;3.60;3.30;;;;;;;;;;4997620;28;20315;-83
2023/05/15 05:04:45;;;;;;;2.95;2.75;;;;;;;;;;4997819;28;20295;-83
2023/05/15 05:07:14;;;;;;;3.45;3.15;;;;;;;;;;4998805;28;20204;-85
2023/05/15 05:09:42;;;;;;;3.72;3.42;;;;;;;;;;4997609;28;20299;-85
2023/05/15 05:12:09;;;;;;;3.22;3.03;;;;;;;;;;5001445;28;20313;-84
2023/05/15 05:14:39;;;;;;;3.95;3.15;;;;;;;;;;5016473;28;20203;-85
2023/05/15 05:17:07;;;;;;;4.95;2.83;;;;;;;;;;5009282;28;20211;-84
2023/05/15 05:19:34;;;;;;;3.13;2.83;;;;;;;;;;4997932;28;20773;-84
2023/05/15 05:22:03;;;;;;;3.47;2.88;;;;;;;;;;4997820;28;20611;-85
2023/05/15 05:24:34;;;;;;;3.17;2.97;;;;;;;;;;4997858;28;20207;-84
2023/05/15 05:27:01;;;;;;;3.38;3.15;;;;;;;;;;4998036;28;20206;-85
2023/05/15 05:29:30;;;;;;;2.75;2.55;;;;;;;;;;4997407;28;20294;-84
2023/05/15 05:31:58;;;;;;;2.88;2.58;;;;;;;;;;4997185;28;20287;-84
2023/05/15 05:34:25;;;;;;;3.17;2.97;;;;;;;;;;4998092;28;20238;-85
2023/05/15 05:36:53;;;;;;;3.30;3.00;;;;;;;;;;4997244;28;20235;-84
2023/05/15 05:39:20;;;;;;;3.45;3.25;;;;;;;;;;4996933;28;20643;-82
2023/05/15 05:41:49;;;;;;;3.70;3.40;;;;;;;;;;4998419;28;20283;-82
2023/05/15 05:44:16;;;;;;;2.78;2.58;;;;;;;;;;5016769;28;20195;-84
2023/05/15 05:46:44;;;;;;;2.80;2.60;;;;;;;;;;5011130;28;20247;-83
2023/05/15 05:49:12;;;;;;;2.55;2.42;;;;;;;;;;4996784;28;20207;-83
2023/05/15 05:51:39;;;;;;;2.53;2.42;;;;;;;;;;4997288;28;20267;-83
2023/05/15 05:54:07;;;;;;;2.90;2.70;;;;;;;;;;4996982;28;20310;-83
2023/05/15 05:56:34;;;;;;;2.95;2.75;;;;;;;;;;4996481;28;20716;-84
2023/05/15 05:59:03;;;;;;;3.75;3.45;;;;;;;;;;4996141;28;20263;-84
2023/05/15 06:01:31;;;;;;;4.78;3.40;;;;;;;;;;4997624;28;20211;-84
2023/05/15 06:03:58;;;;;;;3.88;3.58;;;;;;;;;;4997407;28;20259;-84
2023/05/15 06:06:26;;;;;;;3.13;2.92;;;;;;;;;;4996916;28;20279;-83
2023/05/15 06:08:53;;;;;;;3.15;2.88;;;;;;;;;;4998060;28;20294;-83
2023/05/15 06:11:21;;;;;;;3.80;3.50;;;;;;;;;;4997960;28;20291;-83
2023/05/15 06:13:48;;;;;;;4.18;3.80;;;;;;;;;;4979588;28;20236;-84
2023/05/15 06:16:17;;;;;;;4.10;3.80;;;;;;;;;;4979447;28;20216;-84
2023/05/15 06:18:45;;;;;;;3.65;3.45;;;;;;;;;;4996588;28;20211;-84
2023/05/15 06:21:12;;;;;;;3.15;2.95;;;;;;;;;;4995133;28;20298;-83
2023/05/15 06:23:40;;;;;;;3.30;3.00;;;;;;;;;;4995672;28;20306;-83
2023/05/15 06:26:07;;;;;;;3.55;3.33;;;;;;;;;;4996188;28;20203;-84
2023/05/15 06:28:35;;;;;;;2.90;2.70;;;;;;;;;;4995465;28;20294;-84
2023/05/15 06:31:02;;;;;;;3.08;2.88;;;;;;;;;;4995996;28;20214;-83
2023/05/15 06:33:31;;;;;;;2.90;2.70;;;;;;;;;;4995714;28;20223;-83
2023/05/15 06:35:58;;;;;;;3.08;2.88;;;;;;;;;;4995568;28;20294;-83
2023/05/15 06:38:26;;;;;;;3.65;3.40;;;;;;;;;;4996084;28;20234;-83
2023/05/15 06:40:53;;;;;;;3.38;3.08;;;;;;;;;;4996191;28;20200;-83
2023/05/15 06:43:21;;;;;;;3.78;3.47;;;;;;;;;;5010067;28;20318;-83
2023/05/15 06:45:49;;;;;;;3.92;3.63;;;;;;;;;;5015423;28;20240;-84
2023/05/15 06:48:17;;;;;;;4.70;4.30;;;;;;;;;;4997598;28;20235;-83
2023/05/15 06:50:46;;;;;;;4.97;4.35;;;;;;;;;;4996329;28;20770;-84
2023/05/15 06:53:16;;;;;;;4.38;3.90;;;;;;;;;;4996470;28;20311;-83
2023/05/15 06:55:43;;;;;;;4.00;3.70;;;;;;;;;;4996149;28;20287;-84
2023/05/15 06:58:11;;;;;;;5.63;4.25;;;;;;;;;;4994363;28;20239;-83
2023/05/15 07:00:39;;;;;;;5.30;4.90;;;;;;;;;;4994711;28;20290;-85
2023/05/15 07:03:06;;;;;;;3.70;3.40;;;;;;;;;;4995547;28;20224;-84
2023/05/15 07:05:34;;;;;;;5.50;3.55;;;;;;;;;;4996315;28;20223;-85
2023/05/15 07:08:02;;;;;;;3.75;3.40;;;;;;;;;;4994421;28;20230;-83
2023/05/15 07:10:30;;;;;;;3.65;3.28;;;;;;;;;;4994837;28;20642;-84
2023/05/15 07:12:57;;;;;;;3.38;3.17;;;;;;;;;;5004624;28;20719;-83
2023/05/15 07:15:25;;;;;;;3.20;3.00;;;;;;;;;;5005225;28;20222;-84
2023/05/15 07:17:52;;;;;;;2.90;2.70;;;;;;;;;;4980623;28;20278;-85
2023/05/15 07:20:20;;;;;;;3.47;3.28;;;;;;;;;;4974474;28;20232;-84
2023/05/15 07:22:47;;;;;;;4.22;3.83;;;;;;;;;;4974922;28;20224;-84
2023/05/15 07:25:16;;;;;;;4.90;4.50;;;;;;;;;;4974635;28;20677;-83
2023/05/15 07:27:44;;;;;;;4.13;3.83;;;;;;;;;;4973877;28;20206;-84
2023/05/15 07:30:13;;;;;;;3.70;3.25;;;;;;;;;;4974514;28;20185;-84
2023/05/15 07:32:40;;;;;;;3.28;3.08;;;;;;;;;;4976914;28;20315;-83
2023/05/15 07:35:10;;;;;;;3.92;3.63;;;;;;;;;;4978952;28;20332;-85
2023/05/15 07:37:37;;;;;;;3.17;2.88;;;;;;;;;;4978442;28;20557;-84
2023/05/15 07:40:06;;;;;;;4.88;4.47;;;;;;;;;;4979502;28;20268;-85
2023/05/15 07:42:35;;;;;;;4.22;3.90;;;;;;;;;;4994072;28;20233;-83
2023/05/15 07:45:03;;;;;;;4.32;3.92;;;;;;;;;;5018851;28;20637;-83
2023/05/15 07:47:30;;;;;;;3.88;3.58;;;;;;;;;;5007481;28;20268;-84
2023/05/15 07:49:58;;;;;;;3.50;3.20;;;;;;;;;;4999625;28;20298;-83
2023/05/15 07:52:25;;;;;;;3.88;3.58;;;;;;;;;;4999866;28;20251;-83
2023/05/15 07:54:53;;;;;;;3.42;3.13;;;;;;;;;;4999221;28;20229;-84
2023/05/15 07:57:20;;;;;;;2.80;2.60;;;;;;;;;;4997981;28;20242;-84
2023/05/15 07:59:49;;;;;;;3.67;3.38;;;;;;;;;;4998413;28;20610;-84
2023/05/15 08:02:16;;;;;;;3.17;2.97;;;;;;;;;;4999226;28;20255;-84
2023/05/15 08:04:44;;;;;;;4.32;3.92;;;;;;;;;;4999437;28;20242;-84
2023/05/15 08:07:12;;;;;;;3.75;3.45;;;;;;;;;;4999429;28;20613;-85
2023/05/15 08:09:40;;;;;;;4.03;3.70;;;;;;;;;;4998435;28;20199;-85
2023/05/15 08:12:19;;;;;;;4.25;3.85;;;;;;;;;;5002010;28;20261;-85
2023/05/15 08:14:49;;;;;;;5.78;3.67;;;;;;;;;;5018076;28;20226;-85
2023/05/15 08:17:17;;;;;;;4.03;3.25;;;;;;;;;;5007892;28;20661;-85
2023/05/15 08:19:45;;;;;;;4.28;3.95;;;;;;;;;;4997809;28;20250;-84
2023/05/15 08:22:13;;;;;;;3.92;3.63;;;;;;;;;;4997745;28;20654;-85
2023/05/15 08:24:40;;;;;;;3.95;3.65;;;;;;;;;;4998943;28;20708;-84
2023/05/15 08:27:09;;;;;;;4.22;2.92;;;;;;;;;;4997939;28;20214;-83
2023/05/15 08:29:37;;;;;;;3.85;3.55;;;;;;;;;;4998299;28;20510;-84
2023/05/15 08:32:08;;;;;;;4.72;3.90;;;;;;;;;;4998315;28;20314;-85
2023/05/15 08:34:35;;;;;;;4.40;4.00;;;;;;;;;;4997841;28;20303;-84
2023/05/15 08:37:06;;;;;;;3.88;3.58;;;;;;;;;;4997571;28;20298;-85
2023/05/15 08:39:33;;;;;;;4.35;3.67;;;;;;;;;;4997370;28;20203;-84
2023/05/15 08:42:08;;;;;;;4.10;3.75;;;;;;;;;;5001596;28;20231;-85
2023/05/15 08:44:36;;;;;;;5.13;4.72;;;;;;;;;;5018257;28;20612;-84
2023/05/15 08:47:06;;;;;;;3.40;3.10;;;;;;;;;;5018243;28;20211;-85
2023/05/15 08:49:41;;;;;;;5.18;4.72;;;;;;;;;;5018324;28;20294;-85
2023/05/15 08:52:08;;;;;;;4.75;4.30;;;;;;;;;;5018495;28;20318;-86
2023/05/15 08:54:36;;;;;;;4.60;4.25;;;;;;;;;;5018436;28;20261;-85
2023/05/15 08:57:04;;;;;;;4.55;4.15;;;;;;;;;;5019211;28;20227;-83
2023/05/15 08:59:32;;;;;;;4.72;4.40;;;;;;;;;;5019987;28;20699;-84
2023/05/15 09:02:00;;;;;;;4.70;4.30;;;;;;;;;;5018755;28;20231;-84
2023/05/15 09:04:29;;;;;;;4.05;3.75;;;;;;;;;;5018340;28;20266;-83
2023/05/15 09:06:59;;;;;;;4.40;4.00;;;;;;;;;;5017696;28;20230;-85
2023/05/15 09:09:29;;;;;;;5.50;4.03;;;;;;;;;;5017099;28;20258;-82
2023/05/15 09:11:57;;;;;;;3.63;3.38;;;;;;;;;;5015499;28;20271;-82
2023/05/15 09:14:24;;;;;;;5.63;4.30;;;;;;;;;;4997512;28;20668;-83
2023/05/15 09:16:52;;;;;;;4.18;3.88;;;;;;;;;;4998359;28;20247;-83
2023/05/15 09:19:21;;;;;;;3.58;3.28;;;;;;;;;;4999563;28;20199;-84
2023/05/15 09:21:50;;;;;;;7.68;4.03;;;;;;;;;;4998621;28;20658;-82
2023/05/15 09:24:21;;;;;;;5.30;4.35;;;;;;;;;;4998179;28;20271;-82
2023/05/15 09:27:02;;;;;;;4.75;4.35;;;;;;;;;;4998739;28;20208;-84
2023/05/15 09:29:32;;;;;;;4.10;3.70;;;;;;;;;;4998081;28;20207;-84
2023/05/15 09:32:03;;;;;;;4.38;4.07;;;;;;;;;;4998500;28;20222;-82
2023/05/15 09:34:32;;;;;;;4.53;3.78;;;;;;;;;;4998965;28;20219;-83
2023/05/15 09:37:05;;;;;;;4.22;3.83;;;;;;;;;;4999819;28;20211;-83
2023/05/15 09:39:33;;;;;;;5.35;4.57;;;;;;;;;;4999867;28;20211;-82
2023/05/15 09:42:08;;;;;;;3.75;3.38;;;;;;;;;;5000032;28;20223;-82
2023/05/15 09:44:35;;;;;;;5.03;4.03;;;;;;;;;;4999043;28;20195;-83
2023/05/15 09:47:03;;;;;;;4.30;4.00;;;;;;;;;;4999682;28;20306;-83
2023/05/15 09:49:31;;;;;;;4.00;3.70;;;;;;;;;;4999618;28;20232;-84
2023/05/15 09:52:00;;;;;;;4.50;4.10;;;;;;;;;;4999864;28;20695;-84
2023/05/15 09:54:30;;;;;;;4.60;4.13;;;;;;;;;;4999096;28;20640;-83
2023/05/15 09:56:58;;;;;;;4.13;3.70;;;;;;;;;;4997746;28;20690;-83
2023/05/15 09:59:25;;;;;;;4.18;3.78;;;;;;;;;;5000295;28;20294;-83
2023/05/15 10:01:53;;;;;;;4.93;4.35;;;;;;;;;;4999404;28;20204;-83
2023/05/15 10:04:20;;;;;;;3.97;3.58;;;;;;;;;;5000257;28;20214;-83
2023/05/15 10:06:49;;;;;;;6.35;4.22;;;;;;;;;;5000715;28;20246;-84
2023/05/15 10:09:18;;;;;;;4.80;4.40;;;;;;;;;;4998853;28;20243;-83
2023/05/15 10:11:49;;;;;;;4.30;4.00;;;;;;;;;;5001250;28;20669;-83
2023/05/15 10:14:17;;;;;;;4.93;3.67;;;;;;;;;;4999613;28;20274;-82
2023/05/15 10:16:53;;;;;;;5.72;3.90;;;;;;;;;;5094470;28;20645;-83
2023/05/15 10:19:23;;;;;;;4.35;3.83;;;;;;;;;;5093964;28;20223;-84
2023/05/15 10:21:52;;;;;;;4.82;3.88;;;;;;;;;;5093704;28;20203;-83
2023/05/15 10:24:19;;;;;;;5.28;3.90;;;;;;;;;;5094676;28;20227;-85
2023/05/15 10:26:48;;;;;;;3.90;3.60;;;;;;;;;;5094725;28;20619;-83
2023/05/15 10:29:20;;;;;;;4.20;3.80;;;;;;;;;;5092291;28;20272;-84
2023/05/15 10:31:49;;;;;;;3.90;3.50;;;;;;;;;;5093631;28;20184;-83
2023/05/15 10:34:19;;;;;;;4.40;3.65;;;;;;;;;;5093725;28;20697;-83
2023/05/15 10:36:47;;;;;;;4.07;3.72;;;;;;;;;;5093816;28;20699;-84
2023/05/15 10:39:14;;;;;;;3.72;3.42;;;;;;;;;;5092767;28;20592;-84
2023/05/15 10:41:42;;;;;;;6.18;3.63;;;;;;;;;;5092262;28;20227;-84
2023/05/15 10:44:10;;;;;;;5.70;4.22;;;;;;;;;;5072676;28;20247;-83
2023/05/15 10:46:38;;;;;;;5.00;4.20;;;;;;;;;;5072621;28;20261;-86
2023/05/15 10:49:06;;;;;;;5.07;4.53;;;;;;;;;;5073221;28;20201;-84
2023/05/15 10:51:35;;;;;;;4.28;3.35;;;;;;;;;;5072244;28;20288;-83
2023/05/15 10:54:03;;;;;;;3.70;3.40;;;;;;;;;;5073229;28;20248;-82
2023/05/15 10:56:32;;;;;;;3.78;3.22;;;;;;;;;;5073398;28;20321;-83
2023/05/15 10:59:07;;;;;;;5.25;2.95;;;;;;;;;;5071700;28;20228;-84
2023/05/15 11:01:36;;;;;;;3.78;3.28;;;;;;;;;;5073840;28;20196;-84
2023/05/15 11:04:09;;;;;;;3.72;3.42;;;;;;;;;;5076799;28;20217;-84
2023/05/15 11:06:39;;;;;;;3.30;3.00;;;;;;;;;;5076871;28;20280;-84
2023/05/15 11:09:37;;;;;;;4.40;4.00;;;;;;;;;;5075194;28;20629;-84
2023/05/15 11:12:07;;;;;;;3.88;3.58;;;;;;;;;;5073067;28;20232;-84
2023/05/15 11:14:38;;;;;;;3.35;3.15;;;;;;;;;;5057302;28;20260;-83
2023/05/15 11:17:08;;;;;;;5.00;3.00;;;;;;;;;;5066295;28;20319;-83
2023/05/15 11:19:39;;;;;;;3.10;2.90;;;;;;;;;;5076919;28;20734;-83
2023/05/15 11:22:20;;;;;;;5.25;3.22;;;;;;;;;;5076716;28;20689;-83
2023/05/15 11:24:51;;;;;;;3.65;3.38;;;;;;;;;;5075713;28;20197;-82
2023/05/15 11:27:20;;;;;;;3.65;3.38;;;;;;;;;;5068670;28;20284;-83
2023/05/15 11:30:07;;;;;;;4.30;4.00;;;;;;;;;;5062876;28;20209;-84
2023/05/15 11:32:48;;;;;;;4.00;3.60;;;;;;;;;;5063190;28;20312;-83
2023/05/15 11:35:22;;;;;;;3.75;3.45;;;;;;;;;;5062157;28;20203;-83
2023/05/15 11:37:53;;;;;;;3.90;3.60;;;;;;;;;;5062246;28;20193;-83
2023/05/15 11:40:24;;;;;;;3.55;3.33;;;;;;;;;;5062499;28;20625;-83
2023/05/15 11:43:18;;;;;;;4.50;4.00;;;;;;;;;;5062070;28;20231;-84
2023/05/15 11:45:51;;;;;;;4.55;4.15;;;;;;;;;;5049939;28;20237;-83
2023/05/15 11:48:19;;;;;;;3.17;2.97;;;;;;;;;;5061954;28;20212;-83
2023/05/15 11:50:47;;;;;;;4.85;4.45;;;;;;;;;;5061312;28;20212;-84
2023/05/15 11:53:16;;;;;;;4.07;3.72;;;;;;;;;;5063461;28;20260;-84
2023/05/15 11:55:45;;;;;;;4.68;4.07;;;;;;;;;;5061908;28;20221;-83
2023/05/15 11:58:14;;;;;;;4.82;4.30;;;;;;;;;;5061250;28;20208;-82
2023/05/15 12:00:42;;;;;;;4.90;3.70;;;;;;;;;;5062564;28;20232;-83
2023/05/15 12:03:16;;;;;;;4.05;3.75;;;;;;;;;;5061351;28;20280;-84
2023/05/15 12:05:44;;;;;;;4.78;4.35;;;;;;;;;;5061796;28;20477;-85
2023/05/15 12:08:13;;;;;;;6.10;5.65;;;;;;;;;;5060574;28;20724;-84
2023/05/15 12:10:46;;;;;;;3.53;3.33;;;;;;;;;;5057646;28;20198;-84
2023/05/15 12:13:14;;;;;;;4.10;3.80;;;;;;;;;;5057067;28;20221;-85
2023/05/15 12:15:44;;;;;;;4.47;4.15;;;;;;;;;;5057080;28;20209;-84
2023/05/15 12:18:12;;;;;;;5.90;4.72;;;;;;;;;;5075723;28;20630;-84
2023/05/15 12:20:43;;;;;;;4.90;4.50;;;;;;;;;;5076981;28;20821;-83
2023/05/15 12:23:14;;;;;;;4.70;4.28;;;;;;;;;;5078002;28;20717;-84
2023/05/15 12:25:41;;;;;;;8.27;7.47;;;;;;;;;;5077921;28;20213;-84
2023/05/15 12:28:11;;;;;;;7.80;7.10;;;;;;;;;;5077583;28;20288;-84
2023/05/15 12:30:39;;;;;;;6.82;6.32;;;;;;;;;;5077260;28;20205;-83
2023/05/15 12:33:07;;;;;;;7.90;5.72;;;;;;;;;;5078145;28;20293;-85
2023/05/15 12:35:36;;;;;;;4.57;4.13;;;;;;;;;;5076538;28;20720;-84
2023/05/15 12:38:04;;;;;;;4.80;4.50;;;;;;;;;;5076258;28;20223;-83
2023/05/15 12:40:34;;;;;;;5.88;5.40;;;;;;;;;;5076231;28;20208;-84
2023/05/15 12:43:07;;;;;;;7.30;5.28;;;;;;;;;;5064342;28;20558;-84
2023/05/15 12:45:37;;;;;;;5.78;5.28;;;;;;;;;;5055565;28;20208;-84
2023/05/15 12:48:06;;;;;;;3.83;3.53;;;;;;;;;;5072104;28;20215;-84
2023/05/15 12:50:35;;;;;;;4.95;4.53;;;;;;;;;;5074994;28;20673;-84
2023/05/15 12:53:05;;;;;;;3.30;3.10;;;;;;;;;;5074858;28;20298;-84
2023/05/15 12:55:34;;;;;;;4.00;3.67;;;;;;;;;;5074674;28;20197;-83
2023/05/15 12:58:05;;;;;;;3.28;3.08;;;;;;;;;;5074021;28;20311;-84
2023/05/15 13:00:35;;;;;;;3.85;3.03;;;;;;;;;;5074608;28;20280;-84
2023/05/15 13:03:03;;;;;;;3.35;3.05;;;;;;;;;;5074653;28;20221;-84
2023/05/15 13:05:33;;;;;;;4.30;2.92;;;;;;;;;;5074869;28;20288;-84
2023/05/15 13:08:02;;;;;;;3.97;2.78;;;;;;;;;;5073787;28;20288;-84
2023/05/15 13:10:31;;;;;;;4.03;3.72;;;;;;;;;;5073438;28;20209;-84
2023/05/15 13:12:59;;;;;;;3.95;3.70;;;;;;;;;;5062713;28;20313;-84
2023/05/15 13:15:31;;;;;;;8.32;6.22;;;;;;;;;;5050785;28;20236;-83
2023/05/15 13:18:04;;;;;;;6.82;6.30;;;;;;;;;;5054443;28;20316;-84
2023/05/15 13:20:34;;;;;;;7.18;6.57;;;;;;;;;;5054013;28;20190;-83
2023/05/15 13:23:02;;;;;;;9.13;7.68;;;;;;;;;;5053959;28;20249;-83
2023/05/15 13:25:30;;;;;;;5.72;5.22;;;;;;;;;;5053516;28;20281;-84
2023/05/15 13:27:59;;;;;;;6.35;5.85;;;;;;;;;;5055349;28;20208;-84
2023/05/15 13:30:27;;;;;;;6.43;5.60;;;;;;;;;;5055527;28;20297;-84
2023/05/15 13:32:55;;;;;;;5.80;5.00;;;;;;;;;;5055785;28;20227;-84
2023/05/15 13:35:24;;;;;;;6.05;4.85;;;;;;;;;;5056158;28;20198;-84
2023/05/15 13:37:52;;;;;;;5.38;4.97;;;;;;;;;;5055235;28;20224;-83
2023/05/15 13:40:20;;;;;;;4.88;4.47;;;;;;;;;;5054699;28;20288;-83
2023/05/15 13:42:47;;;;;;;6.07;5.57;;;;;;;;;;5055555;28;20709;-83
2023/05/15 13:45:16;;;;;;;5.10;4.70;;;;;;;;;;5055237;28;20209;-84
2023/05/15 13:47:44;;;;;;;4.72;4.18;;;;;;;;;;5068900;28;20646;-83
2023/05/15 13:50:14;;;;;;;5.45;4.93;;;;;;;;;;5075510;28;20272;-84
2023/05/15 13:52:45;;;;;;;4.45;4.10;;;;;;;;;;5074831;28;20313;-84
2023/05/15 13:55:12;;;;;;;4.32;4.03;;;;;;;;;;5075855;28;20203;-85
2023/05/15 13:57:41;;;;;;;3.88;3.55;;;;;;;;;;5073674;28;20217;-84
2023/05/15 14:00:11;;;;;;;3.53;3.00;;;;;;;;;;5075474;28;20268;-84
2023/05/15 14:02:39;;;;;;;3.17;2.97;;;;;;;;;;5075807;28;20319;-84
2023/05/15 14:05:07;;;;;;;3.55;3.25;;;;;;;;;;5075099;28;20669;-83
2023/05/15 14:07:35;;;;;;;3.40;2.80;;;;;;;;;;5072689;28;20569;-84
2023/05/15 14:10:15;;;;;;;3.20;3.00;;;;;;;;;;5054618;28;20202;-83
2023/05/15 14:13:00;;;;;;;3.10;2.90;;;;;;;;;;5054331;28;20226;-84
2023/05/15 14:15:28;;;;;;;4.40;4.03;;;;;;;;;;5054219;28;20224;-83
2023/05/15 14:17:59;;;;;;;4.47;4.07;;;;;;;;;;5054120;28;20221;-83
2023/05/15 14:20:27;;;;;;;4.55;4.18;;;;;;;;;;5054914;28;20182;-83
2023/05/15 14:22:54;;;;;;;4.75;4.40;;;;;;;;;;5055401;28;20634;-83
2023/05/15 14:25:24;;;;;;;5.32;4.57;;;;;;;;;;5055404;28;20237;-83
2023/05/15 14:27:51;;;;;;;5.38;4.55;;;;;;;;;;5056282;28;20209;-83
2023/05/15 14:30:19;;;;;;;4.43;4.13;;;;;;;;;;5056668;28;20239;-83
2023/05/15 14:32:46;;;;;;;4.32;4.03;;;;;;;;;;5055813;28;20221;-84
2023/05/15 14:35:14;;;;;;;3.50;3.20;;;;;;;;;;5056860;28;20217;-83
2023/05/15 14:37:42;;;;;;;3.30;3.10;;;;;;;;;;5054674;28;20232;-83
2023/05/15 14:40:14;;;;;;;2.97;2.78;;;;;;;;;;5055640;28;20591;-84
2023/05/15 14:42:42;;;;;;;2.50;2.30;;;;;;;;;;5055271;28;20247;-84
2023/05/15 14:45:11;;;;;;;2.30;2.20;;;;;;;;;;5055046;28;20296;-82
2023/05/15 14:47:39;;;;;;;4.00;2.20;;;;;;;;;;5056288;28;20601;-83
2023/05/15 14:50:07;;;;;;;2.05;1.95;;;;;;;;;;5056715;28;20225;-83
2023/05/15 14:52:35;;;;;;;2.25;2.15;;;;;;;;;;5055477;28;20300;-83
2023/05/15 14:55:05;;;;;;;3.05;2.80;;;;;;;;;;5057272;28;20220;-83